createdAt,value
2022-07-26T00:01:14.891Z,22.49
2022-07-26T00:03:41.565Z,22.57
2022-07-26T00:06:08.330Z,22.63
2022-07-26T00:08:36.219Z,22.65
2022-07-26T00:11:07.318Z,22.67
2022-07-26T00:13:35.007Z,22.68
2022-07-26T00:16:01.825Z,22.70
2022-07-26T00:18:28.410Z,22.70
2022-07-26T00:20:55.566Z,22.71
2022-07-26T00:23:22.348Z,22.72
2022-07-26T00:25:50.237Z,22.73
2022-07-26T00:28:16.765Z,22.68
2022-07-26T00:30:43.320Z,22.71
2022-07-26T00:33:09.879Z,22.67
2022-07-26T00:35:36.443Z,22.61
2022-07-26T00:38:03.060Z,22.59
2022-07-26T00:40:30.476Z,22.54
2022-07-26T00:42:58.384Z,22.50
2022-07-26T00:45:24.934Z,22.48
2022-07-26T00:47:51.490Z,22.43
2022-07-26T00:50:19.197Z,22.37
2022-07-26T00:52:47.678Z,22.35
2022-07-26T00:55:14.881Z,22.33
2022-07-26T00:57:42.677Z,22.27
2022-07-26T01:00:14.576Z,22.21
2022-07-26T01:02:41.805Z,22.14
2022-07-26T01:05:08.773Z,22.09
2022-07-26T01:07:36.762Z,22.03
2022-07-26T01:10:05.731Z,21.94
2022-07-26T01:12:32.405Z,21.90
2022-07-26T01:14:58.911Z,21.82
2022-07-26T01:17:26.819Z,21.69
2022-07-26T01:19:53.352Z,21.57
2022-07-26T01:22:21.694Z,21.56
2022-07-26T01:24:48.232Z,21.50
2022-07-26T01:27:14.797Z,21.38
2022-07-26T01:29:41.368Z,21.33
2022-07-26T01:32:08.364Z,21.29
2022-07-26T01:34:35.043Z,21.22
2022-07-26T01:37:02.156Z,21.13
2022-07-26T01:39:30.015Z,21.08
2022-07-26T01:41:56.505Z,21.10
2022-07-26T01:44:23.335Z,21.11
2022-07-26T01:46:49.899Z,21.01
2022-07-26T01:49:16.578Z,21.11
2022-07-26T01:51:43.142Z,21.10
2022-07-26T01:54:10.287Z,21.03
2022-07-26T01:56:38.595Z,20.96
2022-07-26T01:59:05.595Z,20.82
2022-07-26T02:01:39.209Z,20.80
2022-07-26T02:04:06.923Z,20.71
2022-07-26T02:06:34.424Z,20.71
2022-07-26T02:09:01.013Z,20.80
2022-07-26T02:11:28.636Z,20.70
2022-07-26T02:13:56.502Z,20.66
2022-07-26T02:16:23.072Z,20.67
2022-07-26T02:18:49.684Z,20.62
2022-07-26T02:21:16.213Z,20.64
2022-07-26T02:23:43.287Z,20.63
2022-07-26T02:26:09.858Z,20.72
2022-07-26T02:28:36.374Z,20.75
2022-07-26T02:31:04.263Z,20.63
2022-07-26T02:33:30.844Z,20.64
2022-07-26T02:35:57.352Z,20.48
2022-07-26T02:38:25.109Z,20.50
2022-07-26T02:40:52.291Z,20.58
2022-07-26T02:43:18.818Z,20.63
2022-07-26T02:45:45.328Z,20.55
2022-07-26T02:48:31.716Z,20.64
2022-07-26T02:50:58.402Z,20.56
2022-07-26T02:53:24.925Z,20.64
2022-07-26T02:55:51.439Z,20.59
2022-07-26T02:58:17.962Z,20.68
2022-07-26T03:00:44.552Z,20.49
2022-07-26T03:03:11.130Z,20.51
2022-07-26T03:05:39.106Z,20.34
2022-07-26T03:08:06.124Z,20.42
2022-07-26T03:10:32.692Z,20.43
2022-07-26T03:12:59.686Z,20.42
2022-07-26T03:15:26.249Z,20.41
2022-07-26T03:17:52.869Z,20.40
2022-07-26T03:20:19.463Z,20.35
2022-07-26T03:22:47.389Z,20.41
2022-07-26T03:25:14.400Z,20.40
2022-07-26T03:27:41.246Z,20.33
2022-07-26T03:30:09.044Z,20.34
2022-07-26T03:32:35.656Z,20.34
2022-07-26T03:35:02.327Z,20.30
2022-07-26T03:37:45.855Z,20.32
2022-07-26T03:40:15.178Z,20.25
2022-07-26T03:42:41.752Z,20.19
2022-07-26T03:45:09.362Z,20.20
2022-07-26T03:47:35.979Z,20.14
2022-07-26T03:50:02.689Z,20.04
2022-07-26T03:52:29.274Z,20.03
2022-07-26T03:54:55.839Z,20.00
2022-07-26T03:57:23.713Z,19.97
2022-07-26T03:59:55.103Z,19.92
2022-07-26T04:02:21.834Z,19.98
2022-07-26T04:04:48.453Z,20.07
2022-07-26T04:07:16.017Z,20.13
2022-07-26T04:09:42.941Z,20.24
2022-07-26T04:12:09.696Z,20.33
2022-07-26T04:14:37.577Z,20.43
2022-07-26T04:17:04.211Z,20.51
2022-07-26T04:19:30.751Z,20.56
2022-07-26T04:21:57.285Z,20.59
2022-07-26T04:24:25.702Z,20.66
2022-07-26T04:26:52.558Z,20.65
2022-07-26T04:29:19.077Z,20.71
2022-07-26T04:31:46.947Z,20.66
2022-07-26T04:34:13.485Z,20.62
2022-07-26T04:36:40.036Z,20.56
2022-07-26T04:39:06.588Z,20.48
2022-07-26T04:41:33.217Z,20.46
2022-07-26T04:43:59.741Z,20.49
2022-07-26T04:46:26.382Z,20.53
2022-07-26T04:48:54.349Z,20.53
2022-07-26T04:51:21.114Z,20.58
2022-07-26T04:53:47.628Z,20.55
2022-07-26T04:56:14.177Z,20.47
2022-07-26T04:58:40.701Z,20.31
2022-07-26T05:01:10.422Z,20.33
2022-07-26T05:03:37.712Z,20.38
2022-07-26T05:06:06.113Z,20.39
2022-07-26T05:08:32.789Z,20.41
2022-07-26T05:10:59.354Z,20.45
2022-07-26T05:13:29.559Z,20.42
2022-07-26T05:15:56.845Z,20.43
2022-07-26T05:18:23.468Z,20.49
2022-07-26T05:20:51.047Z,20.44
2022-07-26T05:23:19.385Z,20.47
2022-07-26T05:25:46.014Z,20.44
2022-07-26T05:28:12.531Z,20.42
2022-07-26T05:30:39.166Z,20.28
2022-07-26T05:33:05.878Z,20.32
2022-07-26T05:35:32.417Z,20.35
2022-07-26T05:37:59.147Z,20.42
2022-07-26T05:40:27.485Z,20.45
2022-07-26T05:42:54.015Z,20.50
2022-07-26T05:45:20.541Z,20.57
2022-07-26T05:47:49.789Z,20.71
2022-07-26T05:50:16.469Z,20.87
2022-07-26T05:52:42.999Z,21.01
2022-07-26T05:55:10.138Z,21.12
2022-07-26T05:57:38.078Z,21.21
2022-07-26T06:00:06.182Z,21.23
2022-07-26T06:02:34.532Z,21.32
2022-07-26T06:05:01.086Z,21.52
2022-07-26T06:07:27.764Z,21.53
2022-07-26T06:09:54.281Z,21.43
2022-07-26T06:12:20.830Z,21.56
2022-07-26T06:14:48.690Z,21.71
2022-07-26T06:17:15.283Z,21.49
2022-07-26T06:19:47.350Z,21.64
2022-07-26T06:22:14.393Z,21.62
2022-07-26T06:24:40.895Z,21.65
2022-07-26T06:27:07.458Z,21.69
2022-07-26T06:29:33.969Z,21.69
2022-07-26T06:32:01.994Z,21.50
2022-07-26T06:34:28.640Z,21.69
2022-07-26T06:36:55.312Z,21.69
2022-07-26T06:39:21.823Z,21.78
2022-07-26T06:41:48.400Z,21.85
2022-07-26T06:44:14.960Z,22.08
2022-07-26T06:46:41.519Z,22.52
2022-07-26T06:49:09.442Z,22.83
2022-07-26T06:51:35.984Z,23.04
2022-07-26T06:54:02.577Z,23.06
2022-07-26T06:56:29.110Z,23.44
2022-07-26T06:58:55.638Z,23.37
2022-07-26T07:01:51.356Z,23.60
2022-07-26T07:04:10.706Z,23.46
2022-07-26T07:06:37.609Z,23.33
2022-07-26T07:09:04.798Z,23.07
2022-07-26T07:11:34.383Z,22.88
2022-07-26T07:14:00.930Z,22.72
2022-07-26T07:16:27.537Z,22.87
2022-07-26T07:18:54.199Z,22.83
2022-07-26T07:21:22.078Z,22.74
2022-07-26T07:23:48.612Z,22.76
2022-07-26T07:26:16.283Z,22.84
2022-07-26T07:28:42.824Z,23.00
2022-07-26T07:31:09.733Z,23.17
2022-07-26T07:33:36.645Z,23.32
2022-07-26T07:36:19.520Z,23.52
2022-07-26T07:38:48.016Z,23.72
2022-07-26T07:41:14.711Z,23.94
2022-07-26T07:43:41.247Z,23.92
2022-07-26T07:46:08.855Z,23.88
2022-07-26T07:48:36.635Z,23.82
2022-07-26T07:51:03.411Z,23.57
2022-07-26T07:53:30.433Z,23.53
2022-07-26T07:55:59.072Z,23.62
2022-07-26T07:58:25.704Z,23.36
2022-07-26T08:00:54.774Z,23.46
2022-07-26T08:03:21.438Z,23.87
2022-07-26T08:08:18.384Z,24.18
2022-07-26T08:10:51.859Z,24.57
2022-07-26T08:13:21.759Z,24.31
2022-07-26T08:15:49.301Z,24.58
2022-07-26T08:18:16.133Z,24.58
2022-07-26T08:20:43.292Z,24.86
2022-07-26T08:23:10.024Z,24.71
2022-07-26T08:25:39.978Z,25.01
2022-07-26T08:28:30.734Z,25.65
2022-07-26T08:31:00.550Z,25.90
2022-07-26T08:33:27.125Z,26.11
2022-07-26T08:35:58.304Z,25.84
2022-07-26T08:38:24.934Z,25.69
2022-07-26T08:40:51.445Z,25.68
2022-07-26T08:43:17.985Z,25.50
2022-07-26T08:45:44.537Z,25.42
2022-07-26T08:48:17.841Z,25.81
2022-07-26T08:50:45.225Z,25.35
2022-07-26T08:53:12.630Z,25.25
2022-07-26T08:56:05.319Z,25.38
2022-07-26T08:58:25.802Z,25.75
2022-07-26T09:01:04.149Z,26.02
2022-07-26T09:03:32.384Z,26.60
2022-07-26T09:06:11.581Z,27.03
2022-07-26T09:08:38.331Z,27.11
2022-07-26T09:11:26.162Z,26.32
2022-07-26T09:13:55.249Z,26.37
2022-07-26T09:16:21.880Z,25.96
2022-07-26T09:18:49.859Z,25.69
2022-07-26T09:21:27.734Z,25.80
2022-07-26T09:23:54.981Z,25.61
2022-07-26T09:26:23.905Z,25.25
2022-07-26T09:29:02.991Z,25.72
2022-07-26T09:31:29.713Z,25.74
2022-07-26T09:33:57.828Z,26.31
2022-07-26T09:36:24.416Z,26.15
2022-07-26T09:38:53.281Z,26.31
2022-07-26T09:41:21.251Z,26.37
2022-07-26T09:43:53.497Z,26.81
2022-07-26T09:46:21.120Z,26.73
2022-07-26T09:51:40.263Z,26.55
2022-07-26T09:54:07.452Z,26.61
2022-07-26T09:56:43.337Z,26.20
2022-07-26T09:59:09.931Z,26.15
2022-07-26T10:01:36.569Z,26.25
2022-07-26T10:04:03.552Z,26.15
2022-07-26T10:06:30.642Z,26.44
2022-07-26T10:09:00.030Z,26.20
2022-07-26T10:11:28.880Z,26.07
2022-07-26T10:13:55.413Z,25.97
2022-07-26T10:16:32.562Z,26.25
2022-07-26T10:18:59.521Z,26.47
2022-07-26T10:21:29.186Z,26.76
2022-07-26T10:23:57.006Z,26.95
2022-07-26T10:26:38.925Z,27.06
2022-07-26T10:29:22.499Z,27.00
2022-07-26T10:32:15.951Z,26.87
2022-07-26T10:34:42.806Z,26.43
2022-07-26T10:37:11.429Z,26.00
2022-07-26T10:39:38.820Z,26.16
2022-07-26T10:42:08.401Z,25.99
2022-07-26T10:44:36.268Z,25.82
2022-07-26T10:47:10.974Z,25.83
2022-07-26T10:49:38.797Z,25.60
2022-07-26T10:52:11.605Z,25.70
2022-07-26T10:55:14.818Z,25.88
2022-07-26T10:57:44.764Z,26.29
2022-07-26T11:00:19.881Z,26.86
2022-07-26T11:02:54.455Z,27.15
2022-07-26T11:05:21.742Z,26.87
2022-07-26T11:07:58.729Z,26.86
2022-07-26T11:10:28.302Z,26.74
2022-07-26T11:13:08.031Z,26.62
2022-07-26T11:15:35.741Z,26.39
2022-07-26T11:18:13.682Z,26.15
2022-07-26T11:20:41.602Z,25.95
2022-07-26T11:23:26.870Z,26.41
2022-07-26T11:26:14.959Z,26.74
2022-07-26T11:28:48.566Z,26.68
2022-07-26T11:31:17.183Z,26.82
2022-07-26T11:33:49.143Z,26.66
2022-07-26T11:36:15.775Z,26.43
2022-07-26T11:38:50.830Z,26.34
2022-07-26T11:41:21.275Z,26.52
2022-07-26T11:44:03.754Z,26.80
2022-07-26T11:46:36.119Z,27.13
2022-07-26T11:49:03.685Z,27.30
2022-07-26T11:51:30.290Z,27.51
2022-07-26T11:53:56.807Z,27.59
2022-07-26T11:56:23.625Z,27.76
2022-07-26T11:58:52.404Z,27.51
2022-07-26T12:01:22.361Z,27.48
2022-07-26T12:03:50.282Z,27.49
2022-07-26T12:06:19.471Z,27.61
2022-07-26T12:08:50.356Z,27.35
2022-07-26T12:11:20.403Z,27.27
2022-07-26T12:13:56.341Z,27.23
2022-07-26T12:16:42.367Z,26.78
2022-07-26T12:19:22.083Z,26.68
2022-07-26T12:21:51.671Z,26.27
2022-07-26T12:24:40.876Z,26.23
2022-07-26T12:27:09.803Z,26.39
2022-07-26T12:29:36.755Z,26.81
2022-07-26T12:32:12.318Z,26.90
2022-07-26T12:34:41.605Z,26.99
2022-07-26T12:37:14.663Z,26.80
2022-07-26T12:39:42.930Z,26.76
2022-07-26T12:42:33.335Z,27.02
2022-07-26T12:45:01.981Z,27.14
2022-07-26T12:47:30.115Z,27.67
2022-07-26T12:49:56.683Z,27.73
2022-07-26T12:52:23.527Z,27.36
2022-07-26T12:54:51.973Z,27.08
2022-07-26T12:57:19.443Z,26.77
2022-07-26T12:59:46.849Z,26.46
2022-07-26T13:02:13.437Z,26.40
2022-07-26T13:04:41.342Z,26.59
2022-07-26T13:07:07.961Z,26.71
2022-07-26T13:09:34.520Z,26.83
2022-07-26T13:12:01.539Z,26.96
2022-07-26T13:14:28.089Z,26.89
2022-07-26T13:16:54.705Z,26.68
2022-07-26T13:19:21.523Z,26.37
2022-07-26T13:21:52.966Z,26.46
2022-07-26T13:24:20.226Z,26.83
2022-07-26T13:26:49.277Z,27.02
2022-07-26T13:29:15.833Z,27.40
2022-07-26T13:31:42.453Z,27.65
2022-07-26T13:34:09.295Z,27.38
2022-07-26T13:36:36.095Z,27.45
2022-07-26T13:39:04.379Z,27.33
2022-07-26T13:41:31.470Z,27.18
2022-07-26T13:44:02.342Z,27.56
2022-07-26T13:46:33.153Z,27.80
2022-07-26T13:49:01.657Z,27.73
2022-07-26T13:51:30.344Z,27.96
2022-07-26T13:53:56.872Z,28.04
2022-07-26T13:56:24.747Z,28.07
2022-07-26T13:58:51.271Z,27.92
2022-07-26T14:01:17.864Z,28.02
2022-07-26T14:03:44.462Z,28.19
2022-07-26T14:06:10.966Z,28.32
2022-07-26T14:08:37.497Z,28.06
2022-07-26T14:11:05.098Z,28.10
2022-07-26T14:13:33.043Z,28.35
2022-07-26T14:15:59.574Z,28.54
2022-07-26T14:18:26.112Z,28.17
2022-07-26T14:20:52.636Z,27.91
2022-07-26T14:23:19.167Z,28.16
2022-07-26T14:25:45.746Z,28.11
2022-07-26T14:28:12.281Z,28.39
2022-07-26T14:30:40.182Z,28.72
2022-07-26T14:33:06.758Z,28.75
2022-07-26T14:35:33.352Z,28.73
2022-07-26T14:37:59.884Z,28.42
2022-07-26T14:40:26.429Z,28.36
2022-07-26T14:42:53.048Z,28.24
2022-07-26T14:45:19.602Z,27.90
2022-07-26T14:47:47.720Z,27.55
2022-07-26T14:50:14.913Z,27.34
2022-07-26T14:52:44.155Z,27.30
2022-07-26T14:55:11.471Z,27.11
2022-07-26T14:57:39.273Z,27.22
2022-07-26T15:00:09.096Z,27.53
2022-07-26T15:02:37.621Z,27.77
2022-07-26T15:05:06.218Z,28.02
2022-07-26T15:07:32.774Z,28.12
2022-07-26T15:09:59.305Z,28.16
2022-07-26T15:12:25.856Z,28.10
2022-07-26T15:14:52.417Z,28.21
2022-07-26T15:17:20.322Z,28.14
2022-07-26T15:19:46.897Z,28.01
2022-07-26T15:22:15.251Z,27.66
2022-07-26T15:24:41.805Z,27.58
2022-07-26T15:27:08.362Z,27.61
2022-07-26T15:29:35.398Z,27.40
2022-07-26T15:32:02.068Z,27.25
2022-07-26T15:34:28.646Z,26.95
2022-07-26T15:36:55.218Z,26.89
2022-07-26T15:39:23.118Z,26.77
2022-07-26T15:41:50.246Z,26.89
2022-07-26T15:44:18.036Z,26.96
2022-07-26T15:46:45.785Z,27.16
2022-07-26T15:49:15.760Z,27.35
2022-07-26T15:51:43.524Z,27.58
2022-07-26T15:54:12.018Z,27.58
2022-07-26T15:56:40.435Z,27.62
2022-07-26T15:59:07.047Z,27.64
2022-07-26T16:01:34.055Z,27.59
2022-07-26T16:04:00.773Z,27.34
2022-07-26T16:06:27.585Z,27.10
2022-07-26T16:09:15.101Z,27.09
2022-07-26T16:11:42.108Z,26.67
2022-07-26T16:14:08.731Z,26.81
2022-07-26T16:16:35.310Z,27.06
2022-07-26T16:19:01.888Z,27.31
2022-07-26T16:21:28.450Z,27.51
2022-07-26T16:23:55.050Z,27.72
2022-07-26T16:26:21.569Z,27.71
2022-07-26T16:28:49.657Z,27.82
2022-07-26T16:31:16.222Z,27.86
2022-07-26T16:33:46.576Z,27.94
2022-07-26T16:36:13.319Z,28.06
2022-07-26T16:38:39.871Z,27.92
2022-07-26T16:41:06.519Z,28.11
2022-07-26T16:43:33.038Z,27.93
2022-07-26T16:46:01.018Z,27.91
2022-07-26T16:48:27.783Z,27.68
2022-07-26T16:50:54.394Z,27.67
2022-07-26T16:53:20.950Z,27.53
2022-07-26T16:55:47.586Z,27.34
2022-07-26T16:58:14.170Z,27.29
2022-07-26T17:00:40.814Z,27.30
2022-07-26T17:03:08.765Z,27.32
2022-07-26T17:05:35.413Z,27.19
2022-07-26T17:08:01.955Z,27.08
2022-07-26T17:10:28.475Z,27.06
2022-07-26T17:12:54.994Z,27.00
2022-07-26T17:15:21.576Z,27.01
2022-07-26T17:17:49.020Z,27.26
2022-07-26T17:20:17.045Z,27.12
2022-07-26T17:22:43.608Z,27.32
2022-07-26T17:25:10.554Z,27.23
2022-07-26T17:27:37.098Z,27.22
2022-07-26T17:30:07.190Z,27.09
2022-07-26T17:32:34.092Z,27.29
2022-07-26T17:35:00.707Z,27.36
2022-07-26T17:37:28.724Z,27.22
2022-07-26T17:39:55.348Z,26.92
2022-07-26T17:42:24.228Z,26.69
2022-07-26T17:44:50.859Z,26.83
2022-07-26T17:47:28.072Z,26.73
2022-07-26T17:53:34.145Z,26.68
2022-07-26T17:56:01.468Z,26.47
2022-07-26T17:58:28.037Z,26.17
2022-07-26T18:00:54.590Z,25.94
2022-07-26T18:03:21.157Z,25.92
2022-07-26T18:05:47.747Z,25.95
2022-07-26T18:08:14.333Z,25.74
2022-07-26T18:10:43.662Z,25.83
2022-07-26T18:13:11.824Z,25.83
2022-07-26T18:15:38.392Z,25.72
2022-07-26T18:18:05.057Z,25.57
2022-07-26T18:20:33.203Z,25.60
2022-07-26T18:22:59.780Z,25.38
2022-07-26T18:25:26.298Z,25.40
2022-07-26T18:27:54.145Z,25.17
2022-07-26T18:30:20.881Z,25.03
2022-07-26T18:32:47.414Z,24.81
2022-07-26T18:35:13.929Z,24.56
2022-07-26T18:37:40.465Z,24.29
2022-07-26T18:40:08.394Z,24.29
2022-07-26T18:42:35.000Z,24.09
2022-07-26T18:45:02.920Z,23.93
2022-07-26T18:47:29.480Z,23.86
2022-07-26T18:49:55.995Z,23.60
2022-07-26T18:52:28.267Z,23.42
2022-07-26T18:54:59.036Z,23.29
2022-07-26T18:57:25.568Z,23.13
2022-07-26T18:59:52.089Z,23.18
2022-07-26T19:02:19.969Z,22.96
2022-07-26T19:04:46.462Z,22.79
2022-07-26T19:07:13.008Z,22.61
2022-07-26T19:09:39.516Z,22.46
2022-07-26T19:12:06.592Z,22.35
2022-07-26T19:14:33.130Z,22.18
2022-07-26T19:16:59.649Z,22.19
2022-07-26T19:19:27.510Z,22.10
2022-07-26T19:21:54.038Z,22.02
2022-07-26T19:24:20.577Z,21.84
2022-07-26T19:26:47.085Z,21.64
2022-07-26T19:29:14.021Z,21.56
2022-07-26T19:31:40.928Z,21.28
2022-07-26T19:34:07.509Z,21.21
2022-07-26T19:36:35.366Z,21.07
2022-07-26T19:39:01.909Z,21.03
2022-07-26T19:41:28.552Z,20.64
2022-07-26T19:43:55.882Z,20.32
2022-07-26T19:46:22.733Z,20.08
2022-07-26T19:48:50.242Z,19.92
2022-07-26T19:51:16.896Z,19.65
2022-07-26T19:53:44.787Z,19.63
2022-07-26T19:56:11.382Z,19.58
2022-07-26T19:58:37.924Z,19.58
2022-07-26T20:01:04.564Z,19.46
2022-07-26T20:03:31.158Z,19.32
2022-07-26T20:05:57.776Z,19.26
2022-07-26T20:08:24.748Z,19.19
2022-07-26T20:10:52.883Z,19.06
2022-07-26T20:13:19.464Z,18.92
2022-07-26T20:15:46.145Z,18.71
2022-07-26T20:18:13.032Z,18.51
2022-07-26T20:20:39.810Z,18.39
2022-07-26T20:23:06.391Z,18.30
2022-07-26T20:25:33.244Z,18.07
2022-07-26T20:28:01.198Z,18.11
2022-07-26T20:30:28.092Z,18.03
2022-07-26T20:32:54.967Z,17.90
2022-07-26T20:35:21.593Z,17.94
2022-07-26T20:37:48.148Z,17.83
2022-07-26T20:40:15.505Z,17.70
2022-07-26T20:42:44.573Z,17.60
2022-07-26T20:45:13.225Z,17.57
2022-07-26T20:47:39.843Z,17.54
2022-07-26T20:50:07.740Z,17.40
2022-07-26T20:52:34.307Z,17.40
2022-07-26T20:55:00.842Z,17.33
2022-07-26T20:57:27.390Z,17.34
2022-07-26T20:59:53.939Z,17.27
2022-07-26T21:02:21.937Z,17.17
2022-07-26T21:04:48.575Z,17.19
2022-07-26T21:07:15.296Z,17.05
2022-07-26T21:09:41.855Z,17.09
2022-07-26T21:12:09.399Z,17.07
2022-07-26T21:14:35.990Z,16.93
2022-07-26T21:17:04.665Z,16.91
2022-07-26T21:19:34.579Z,16.80
2022-07-26T21:22:01.170Z,16.66
2022-07-26T21:24:27.990Z,16.55
2022-07-26T21:26:54.552Z,16.58
2022-07-26T21:29:21.400Z,16.51
2022-07-26T21:31:48.030Z,16.47
2022-07-26T21:34:14.673Z,16.40
2022-07-26T21:36:42.610Z,16.45
2022-07-26T21:39:09.493Z,16.36
2022-07-26T21:41:36.605Z,16.27
2022-07-26T21:44:03.991Z,16.18
2022-07-26T21:46:30.676Z,16.17
2022-07-26T21:48:57.326Z,16.15
2022-07-26T21:51:23.935Z,16.18
2022-07-26T21:53:51.839Z,16.19
2022-07-26T21:56:18.545Z,16.19
2022-07-26T21:58:45.115Z,16.21
2022-07-26T22:01:14.051Z,16.18
2022-07-26T22:03:41.361Z,16.12
2022-07-26T22:06:08.403Z,16.09
2022-07-26T22:08:35.022Z,16.14
2022-07-26T22:11:03.990Z,16.04
2022-07-26T22:13:30.616Z,15.95
2022-07-26T22:15:57.234Z,15.85
2022-07-26T22:18:23.813Z,15.73
2022-07-26T22:20:50.376Z,15.67
2022-07-26T22:23:18.603Z,15.69
2022-07-26T22:25:45.631Z,15.66
2022-07-26T22:28:18.443Z,15.68
2022-07-26T22:30:45.417Z,15.67
2022-07-26T22:33:11.976Z,15.63
2022-07-26T22:35:38.687Z,15.64
2022-07-26T22:38:08.110Z,15.60
2022-07-26T22:40:35.299Z,15.53
2022-07-26T22:43:02.098Z,15.53
2022-07-26T22:45:32.002Z,15.45
2022-07-26T22:47:58.803Z,15.44
2022-07-26T22:50:25.488Z,15.49
2022-07-26T22:52:52.443Z,15.28
2022-07-26T22:55:19.304Z,15.27
2022-07-26T22:57:46.126Z,15.26
2022-07-26T23:00:15.115Z,15.23
2022-07-26T23:02:43.382Z,15.20
2022-07-26T23:05:11.310Z,15.11
2022-07-26T23:07:38.475Z,15.08
2022-07-26T23:10:08.839Z,15.07
2022-07-26T23:12:36.046Z,15.11
2022-07-26T23:15:03.570Z,15.01
2022-07-26T23:17:30.163Z,15.09
2022-07-26T23:19:58.071Z,15.14
2022-07-26T23:22:24.721Z,15.04
2022-07-26T23:24:51.258Z,14.98
2022-07-26T23:27:20.108Z,14.93
2022-07-26T23:29:47.022Z,14.84
2022-07-26T23:32:14.855Z,14.66
2022-07-26T23:34:41.415Z,14.67
2022-07-26T23:37:09.399Z,14.73
2022-07-26T23:39:36.000Z,14.76
2022-07-26T23:42:02.624Z,14.71
2022-07-26T23:44:29.883Z,14.75
2022-07-26T23:46:56.551Z,14.85
2022-07-26T23:49:23.282Z,14.89
2022-07-26T23:51:50.069Z,14.76
2022-07-26T23:54:18.078Z,14.66
2022-07-26T23:56:44.647Z,14.72
2022-07-26T23:59:11.771Z,14.70
